METAR

METAR

SAPL62 EPRA 230730
METAR EPRA 230730Z 31011KT 9999 -RA BKN017 BKN022 04/01 Q1013=

TAF

TAF

FCPL62 EPRA 230500
TAF EPRA 230530Z 2306/2315 29012KT 9999 BKN015
PROB40 TEMPO 2308/2315 7000 SHRA BKN014CB
BECMG 2309/2311 BKN030=

Witamy na stronie Radom Meteo

zawsze aktualna prognoza dla pilotów 

W zakresie osłony meteorologicznej realizujemy:

  • wykonywanie pomiarów i obserwacji meteorologicznych;
  • przygotowane prognoz meteorologicznych;
  • opracowywanie ostrzeżeń meteorologicznych;
  • informowanie o warunkach meteorologicznych;
  • dystrybucję informacji meteorologicznych;
  • opracowywanie danych klimatycznych.